Alajuela, Costa Rica

7:10 AM CST on September 03, 2015 (GMT -0600)
San Marcanda | | Change Station
CLOSE
Current Station
Personal Weather Station
Location: Heredia Province, HEREDIA PROVINCE
Elevation: 3383 ft
Nearby Weather Stations

Elev 3383 ft 10.02 °N, 84.17 °W | Updated 30 minutes ago

Clear
Clear
71.8 °F
Feels Like 74 °F
N
4.7
Wind Variable Wind from West

Today
High -- | Low -- °F
--% Chance of Precip.
Yesterday
High -- | Low -- °F
Precip. -- in
5:27 AM 5:44 PM
Waning Gibbous, 70% visible
Pressure 30.01 in
Visibility -9999.0 miles
Clouds
Heat Index 74 °F
Dew Point 63 °F
Humidity 74%
Rainfall 0.00 in
Snow Depth Not available.
UV Not available.
Pollen Not available.
Air Quality Not available.
Flu Activity Not available.
METAR MROC 031300Z 08004KT CAVOK 24/17 A3001 NOSIG
Pressure 30.01 in
Visibility -9999.0 miles
Clouds
Heat Index 74 °F
Dew Point 63 °F
Humidity 74%
Rainfall 0.00 in
Snow Depth Not available.
UV Not available.
Pollen Not available.
Air Quality Not available.
Flu Activity Not available.
METAR MROC 031300Z 08004KT CAVOK 24/17 A3001 NOSIG

10-Day Weather Forecast

×

Almanac

Astronomy

Sep. 03, 2015 Rise Set
Actual Time
Civil Twilight
Nautical Twilight
Astronomical Twilight
Moon
Length of Visible Light
Length of Day
Tomorrow will be .
, % of the Moon is Illuminated

Today's Extremes

Country Highs Country Lows

Community

WunderPhotos

Upload Photos

1,851,952 photos uploaded!

WunderBlogs® & News

Nearby

Air Quality

  Air Quality AQ Index Pollutant
Not available.

Snow Depth

Station Depth Elevation

Earthquake Activity

City Distance Mag. Time & Date
Minimum magnitude displayed is 2.5.

Coastal Water Temperatures

Place Temperature

Stations

Nearby Weather Stations

Station Location Temp. Windchill Dew Point Humidity Wind Precip. Elev Updated Type